sensor_id;sensor_type;location;lat;lon;timestamp;P1;durP1;ratioP1;P2;durP2;ratioP2
19944;SDS011;10134;50.952;6.930;2022-07-24T00:01:46;7.28;;;5.13;;
19944;SDS011;10134;50.952;6.930;2022-07-24T00:04:14;5.75;;;4.25;;
19944;SDS011;10134;50.952;6.930;2022-07-24T00:06:41;6.65;;;5.68;;
19944;SDS011;10134;50.952;6.930;2022-07-24T00:09:09;7.63;;;5.50;;
19944;SDS011;10134;50.952;6.930;2022-07-24T00:11:36;7.78;;;4.90;;
19944;SDS011;10134;50.952;6.930;2022-07-24T00:14:03;8.38;;;5.05;;
19944;SDS011;10134;50.952;6.930;2022-07-24T00:16:36;6.82;;;5.25;;
19944;SDS011;10134;50.952;6.930;2022-07-24T00:19:03;5.82;;;5.00;;
19944;SDS011;10134;50.952;6.930;2022-07-24T00:21:31;6.82;;;5.28;;
19944;SDS011;10134;50.952;6.930;2022-07-24T00:23:59;6.07;;;5.18;;
19944;SDS011;10134;50.952;6.930;2022-07-24T00:26:26;5.70;;;5.10;;
19944;SDS011;10134;50.952;6.930;2022-07-24T00:28:54;8.82;;;5.60;;
19944;SDS011;10134;50.952;6.930;2022-07-24T00:31:21;8.02;;;5.72;;
19944;SDS011;10134;50.952;6.930;2022-07-24T00:33:48;7.65;;;5.57;;
19944;SDS011;10134;50.952;6.930;2022-07-24T00:36:16;6.45;;;4.93;;
19944;SDS011;10134;50.952;6.930;2022-07-24T00:38:43;6.22;;;4.93;;
19944;SDS011;10134;50.952;6.930;2022-07-24T00:41:10;5.75;;;4.57;;
19944;SDS011;10134;50.952;6.930;2022-07-24T00:46:24;5.85;;;5.00;;
19944;SDS011;10134;50.952;6.930;2022-07-24T00:48:52;6.18;;;4.43;;
19944;SDS011;10134;50.952;6.930;2022-07-24T00:51:19;7.68;;;5.40;;
19944;SDS011;10134;50.952;6.930;2022-07-24T00:53:47;6.38;;;5.03;;
19944;SDS011;10134;50.952;6.930;2022-07-24T00:56:15;5.63;;;4.50;;
19944;SDS011;10134;50.952;6.930;2022-07-24T00:58:44;12.68;;;5.53;;
19944;SDS011;10134;50.952;6.930;2022-07-24T01:01:13;6.35;;;5.30;;
19944;SDS011;10134;50.952;6.930;2022-07-24T01:03:41;6.57;;;5.13;;
19944;SDS011;10134;50.952;6.930;2022-07-24T01:06:10;5.78;;;5.10;;
19944;SDS011;10134;50.952;6.930;2022-07-24T01:08:37;5.40;;;4.75;;
19944;SDS011;10134;50.952;6.930;2022-07-24T01:11:04;7.13;;;6.03;;
19944;SDS011;10134;50.952;6.930;2022-07-24T01:13:38;6.80;;;5.43;;
19944;SDS011;10134;50.952;6.930;2022-07-24T01:16:07;8.13;;;5.13;;
19944;SDS011;10134;50.952;6.930;2022-07-24T01:18:35;7.45;;;5.18;;
19944;SDS011;10134;50.952;6.930;2022-07-24T01:21:04;7.38;;;5.60;;
19944;SDS011;10134;50.952;6.930;2022-07-24T01:23:32;5.68;;;5.07;;
19944;SDS011;10134;50.952;6.930;2022-07-24T01:26:00;9.15;;;6.05;;
19944;SDS011;10134;50.952;6.930;2022-07-24T01:28:29;8.90;;;5.80;;
19944;SDS011;10134;50.952;6.930;2022-07-24T01:30:56;6.35;;;5.40;;
19944;SDS011;10134;50.952;6.930;2022-07-24T01:33:23;5.68;;;5.05;;
19944;SDS011;10134;50.952;6.930;2022-07-24T01:35:51;9.43;;;5.15;;
19944;SDS011;10134;50.952;6.930;2022-07-24T01:38:19;6.80;;;5.60;;
19944;SDS011;10134;50.952;6.930;2022-07-24T01:40:46;5.63;;;5.10;;
19944;SDS011;10134;50.952;6.930;2022-07-24T01:43:13;8.10;;;5.93;;
19944;SDS011;10134;50.952;6.930;2022-07-24T01:45:41;7.70;;;5.55;;
19944;SDS011;10134;50.952;6.930;2022-07-24T01:48:08;7.75;;;4.88;;
19944;SDS011;10134;50.952;6.930;2022-07-24T01:50:36;9.02;;;5.28;;
19944;SDS011;10134;50.952;6.930;2022-07-24T01:53:03;8.23;;;5.30;;
19944;SDS011;10134;50.952;6.930;2022-07-24T01:55:30;7.38;;;5.18;;
19944;SDS011;10134;50.952;6.930;2022-07-24T01:57:58;6.10;;;4.80;;
19944;SDS011;10134;50.952;6.930;2022-07-24T02:00:25;6.43;;;5.07;;
19944;SDS011;10134;50.952;6.930;2022-07-24T02:02:53;5.40;;;4.90;;
19944;SDS011;10134;50.952;6.930;2022-07-24T02:05:20;9.05;;;5.40;;
19944;SDS011;10134;50.952;6.930;2022-07-24T02:07:53;6.68;;;5.35;;
19944;SDS011;10134;50.952;6.930;2022-07-24T02:10:23;8.32;;;5.60;;
19944;SDS011;10134;50.952;6.930;2022-07-24T02:12:51;6.50;;;5.45;;
19944;SDS011;10134;50.952;6.930;2022-07-24T02:15:19;7.38;;;5.25;;
19944;SDS011;10134;50.952;6.930;2022-07-24T02:17:50;7.03;;;5.03;;
19944;SDS011;10134;50.952;6.930;2022-07-24T02:20:19;8.15;;;5.03;;
19944;SDS011;10134;50.952;6.930;2022-07-24T02:22:46;7.43;;;5.40;;
19944;SDS011;10134;50.952;6.930;2022-07-24T02:25:14;5.63;;;4.88;;
19944;SDS011;10134;50.952;6.930;2022-07-24T02:27:42;12.55;;;5.95;;
19944;SDS011;10134;50.952;6.930;2022-07-24T02:30:10;6.70;;;4.95;;
19944;SDS011;10134;50.952;6.930;2022-07-24T02:32:40;6.22;;;5.22;;
19944;SDS011;10134;50.952;6.930;2022-07-24T02:35:08;8.63;;;5.88;;
19944;SDS011;10134;50.952;6.930;2022-07-24T02:37:36;7.50;;;5.43;;
19944;SDS011;10134;50.952;6.930;2022-07-24T02:40:06;7.80;;;5.38;;
19944;SDS011;10134;50.952;6.930;2022-07-24T02:42:34;6.80;;;5.55;;
19944;SDS011;10134;50.952;6.930;2022-07-24T02:45:03;7.63;;;5.78;;
19944;SDS011;10134;50.952;6.930;2022-07-24T02:47:32;6.43;;;5.03;;
19944;SDS011;10134;50.952;6.930;2022-07-24T02:49:59;6.65;;;5.25;;
19944;SDS011;10134;50.952;6.930;2022-07-24T02:52:26;6.75;;;5.07;;
19944;SDS011;10134;50.952;6.930;2022-07-24T02:54:54;6.72;;;5.05;;
19944;SDS011;10134;50.952;6.930;2022-07-24T02:57:22;6.10;;;5.50;;
19944;SDS011;10134;50.952;6.930;2022-07-24T02:59:49;5.63;;;5.13;;
19944;SDS011;10134;50.952;6.930;2022-07-24T03:02:19;8.98;;;5.97;;
19944;SDS011;10134;50.952;6.930;2022-07-24T03:04:46;8.13;;;5.63;;
19944;SDS011;10134;50.952;6.930;2022-07-24T03:07:14;6.28;;;5.50;;
19944;SDS011;10134;50.952;6.930;2022-07-24T03:09:41;6.57;;;5.78;;
19944;SDS011;10134;50.952;6.930;2022-07-24T03:12:09;6.65;;;6.03;;
19944;SDS011;10134;50.952;6.930;2022-07-24T03:14:36;7.60;;;5.90;;
19944;SDS011;10134;50.952;6.930;2022-07-24T03:17:05;6.65;;;5.90;;
19944;SDS011;10134;50.952;6.930;2022-07-24T03:19:32;7.43;;;5.57;;
19944;SDS011;10134;50.952;6.930;2022-07-24T03:21:59;6.22;;;5.45;;
19944;SDS011;10134;50.952;6.930;2022-07-24T03:24:27;6.05;;;4.63;;
19944;SDS011;10134;50.952;6.930;2022-07-24T03:26:54;6.00;;;5.18;;
19944;SDS011;10134;50.952;6.930;2022-07-24T03:29:21;12.32;;;5.50;;
19944;SDS011;10134;50.952;6.930;2022-07-24T03:31:49;9.02;;;5.40;;
19944;SDS011;10134;50.952;6.930;2022-07-24T03:34:16;6.38;;;5.00;;
19944;SDS011;10134;50.952;6.930;2022-07-24T03:36:43;6.25;;;5.45;;
19944;SDS011;10134;50.952;6.930;2022-07-24T03:39:11;7.20;;;5.13;;
19944;SDS011;10134;50.952;6.930;2022-07-24T03:41:38;7.32;;;5.53;;
19944;SDS011;10134;50.952;6.930;2022-07-24T03:44:05;8.73;;;5.97;;
19944;SDS011;10134;50.952;6.930;2022-07-24T03:46:33;6.82;;;5.35;;
19944;SDS011;10134;50.952;6.930;2022-07-24T03:49:00;8.25;;;5.40;;
19944;SDS011;10134;50.952;6.930;2022-07-24T03:51:29;7.10;;;5.85;;
19944;SDS011;10134;50.952;6.930;2022-07-24T03:53:57;6.88;;;4.93;;
19944;SDS011;10134;50.952;6.930;2022-07-24T03:56:25;6.50;;;5.40;;
19944;SDS011;10134;50.952;6.930;2022-07-24T03:58:52;7.15;;;5.13;;
19944;SDS011;10134;50.952;6.930;2022-07-24T04:01:20;7.35;;;5.70;;
19944;SDS011;10134;50.952;6.930;2022-07-24T04:03:48;7.28;;;5.38;;
19944;SDS011;10134;50.952;6.930;2022-07-24T04:06:15;6.95;;;5.10;;
19944;SDS011;10134;50.952;6.930;2022-07-24T04:08:43;8.13;;;6.00;;
19944;SDS011;10134;50.952;6.930;2022-07-24T04:11:11;5.40;;;4.90;;
19944;SDS011;10134;50.952;6.930;2022-07-24T04:13:39;6.15;;;5.25;;
19944;SDS011;10134;50.952;6.930;2022-07-24T04:16:09;7.40;;;5.57;;
19944;SDS011;10134;50.952;6.930;2022-07-24T04:18:36;8.20;;;5.47;;
19944;SDS011;10134;50.952;6.930;2022-07-24T04:21:04;5.97;;;5.30;;
19944;SDS011;10134;50.952;6.930;2022-07-24T04:23:31;7.20;;;5.70;;
19944;SDS011;10134;50.952;6.930;2022-07-24T04:25:59;7.82;;;5.30;;
19944;SDS011;10134;50.952;6.930;2022-07-24T04:28:27;6.35;;;5.30;;
19944;SDS011;10134;50.952;6.930;2022-07-24T04:30:54;7.30;;;5.60;;
19944;SDS011;10134;50.952;6.930;2022-07-24T04:33:21;6.72;;;5.10;;
19944;SDS011;10134;50.952;6.930;2022-07-24T04:35:49;6.10;;;5.43;;
19944;SDS011;10134;50.952;6.930;2022-07-24T04:38:16;7.53;;;5.78;;
19944;SDS011;10134;50.952;6.930;2022-07-24T04:40:43;7.85;;;5.35;;
19944;SDS011;10134;50.952;6.930;2022-07-24T04:43:11;7.80;;;5.65;;
19944;SDS011;10134;50.952;6.930;2022-07-24T04:45:38;7.18;;;5.70;;
19944;SDS011;10134;50.952;6.930;2022-07-24T04:48:05;6.90;;;5.53;;
19944;SDS011;10134;50.952;6.930;2022-07-24T04:50:32;5.57;;;5.07;;
19944;SDS011;10134;50.952;6.930;2022-07-24T04:53:01;8.50;;;5.78;;
19944;SDS011;10134;50.952;6.930;2022-07-24T04:55:28;5.18;;;4.65;;
19944;SDS011;10134;50.952;6.930;2022-07-24T04:57:55;7.97;;;4.78;;
19944;SDS011;10134;50.952;6.930;2022-07-24T05:00:23;8.48;;;6.53;;
19944;SDS011;10134;50.952;6.930;2022-07-24T05:02:50;5.97;;;5.28;;
19944;SDS011;10134;50.952;6.930;2022-07-24T05:05:17;6.10;;;5.05;;
19944;SDS011;10134;50.952;6.930;2022-07-24T05:07:45;6.38;;;5.40;;
19944;SDS011;10134;50.952;6.930;2022-07-24T05:10:12;5.72;;;4.93;;
19944;SDS011;10134;50.952;6.930;2022-07-24T05:12:39;7.40;;;5.43;;
19944;SDS011;10134;50.952;6.930;2022-07-24T05:15:07;5.90;;;5.30;;
19944;SDS011;10134;50.952;6.930;2022-07-24T05:17:35;6.65;;;5.38;;
19944;SDS011;10134;50.952;6.930;2022-07-24T05:20:04;6.88;;;4.93;;
19944;SDS011;10134;50.952;6.930;2022-07-24T05:22:32;5.53;;;5.03;;
19944;SDS011;10134;50.952;6.930;2022-07-24T05:24:59;7.40;;;4.97;;
19944;SDS011;10134;50.952;6.930;2022-07-24T05:27:26;6.63;;;5.68;;
19944;SDS011;10134;50.952;6.930;2022-07-24T05:29:54;7.28;;;5.10;;
19944;SDS011;10134;50.952;6.930;2022-07-24T05:32:21;5.40;;;4.78;;
19944;SDS011;10134;50.952;6.930;2022-07-24T05:34:48;6.25;;;4.80;;
19944;SDS011;10134;50.952;6.930;2022-07-24T05:37:15;9.93;;;4.85;;
19944;SDS011;10134;50.952;6.930;2022-07-24T05:39:43;5.75;;;5.25;;
19944;SDS011;10134;50.952;6.930;2022-07-24T05:42:10;6.35;;;4.80;;
19944;SDS011;10134;50.952;6.930;2022-07-24T05:44:37;5.57;;;4.93;;
19944;SDS011;10134;50.952;6.930;2022-07-24T05:47:05;8.65;;;5.28;;
19944;SDS011;10134;50.952;6.930;2022-07-24T05:49:33;5.97;;;5.38;;
19944;SDS011;10134;50.952;6.930;2022-07-24T05:52:01;12.43;;;5.13;;
19944;SDS011;10134;50.952;6.930;2022-07-24T05:54:35;5.75;;;5.03;;
19944;SDS011;10134;50.952;6.930;2022-07-24T05:57:02;4.93;;;4.43;;
19944;SDS011;10134;50.952;6.930;2022-07-24T05:59:30;6.55;;;4.50;;
19944;SDS011;10134;50.952;6.930;2022-07-24T06:01:57;5.28;;;4.65;;
19944;SDS011;10134;50.952;6.930;2022-07-24T06:04:26;6.13;;;5.50;;
19944;SDS011;10134;50.952;6.930;2022-07-24T06:06:54;5.45;;;4.85;;
19944;SDS011;10134;50.952;6.930;2022-07-24T06:09:21;6.55;;;4.88;;
19944;SDS011;10134;50.952;6.930;2022-07-24T06:11:48;7.95;;;5.35;;
19944;SDS011;10134;50.952;6.930;2022-07-24T06:14:16;6.78;;;4.93;;
19944;SDS011;10134;50.952;6.930;2022-07-24T06:16:44;5.72;;;4.65;;
19944;SDS011;10134;50.952;6.930;2022-07-24T06:19:14;6.45;;;4.80;;
19944;SDS011;10134;50.952;6.930;2022-07-24T06:21:41;6.20;;;4.95;;
19944;SDS011;10134;50.952;6.930;2022-07-24T06:24:09;7.18;;;4.88;;
19944;SDS011;10134;50.952;6.930;2022-07-24T06:26:36;7.47;;;5.22;;
19944;SDS011;10134;50.952;6.930;2022-07-24T06:29:23;5.93;;;4.90;;
19944;SDS011;10134;50.952;6.930;2022-07-24T06:31:50;7.25;;;5.13;;
19944;SDS011;10134;50.952;6.930;2022-07-24T06:34:18;6.93;;;5.28;;
19944;SDS011;10134;50.952;6.930;2022-07-24T06:36:50;6.45;;;5.15;;
19944;SDS011;10134;50.952;6.930;2022-07-24T06:39:17;9.77;;;5.30;;
19944;SDS011;10134;50.952;6.930;2022-07-24T06:41:45;7.75;;;4.93;;
19944;SDS011;10134;50.952;6.930;2022-07-24T06:44:23;5.00;;;4.50;;
19944;SDS011;10134;50.952;6.930;2022-07-24T06:46:51;5.05;;;4.35;;
19944;SDS011;10134;50.952;6.930;2022-07-24T06:49:19;6.18;;;4.72;;
19944;SDS011;10134;50.952;6.930;2022-07-24T06:51:46;5.43;;;4.93;;
19944;SDS011;10134;50.952;6.930;2022-07-24T06:54:14;7.90;;;5.10;;
19944;SDS011;10134;50.952;6.930;2022-07-24T06:56:42;6.25;;;4.30;;
19944;SDS011;10134;50.952;6.930;2022-07-24T06:59:17;7.15;;;5.03;;
19944;SDS011;10134;50.952;6.930;2022-07-24T07:01:44;6.80;;;4.88;;
19944;SDS011;10134;50.952;6.930;2022-07-24T07:04:12;4.30;;;3.85;;
19944;SDS011;10134;50.952;6.930;2022-07-24T07:06:39;9.43;;;5.45;;
19944;SDS011;10134;50.952;6.930;2022-07-24T07:09:10;7.40;;;4.68;;
19944;SDS011;10134;50.952;6.930;2022-07-24T07:11:38;7.15;;;4.50;;
19944;SDS011;10134;50.952;6.930;2022-07-24T07:14:05;6.00;;;4.80;;
19944;SDS011;10134;50.952;6.930;2022-07-24T07:16:32;7.57;;;5.20;;
19944;SDS011;10134;50.952;6.930;2022-07-24T07:19:00;7.13;;;4.97;;
19944;SDS011;10134;50.952;6.930;2022-07-24T07:21:28;5.50;;;4.80;;
19944;SDS011;10134;50.952;6.930;2022-07-24T07:23:55;8.45;;;4.97;;
19944;SDS011;10134;50.952;6.930;2022-07-24T07:26:23;5.20;;;4.60;;
19944;SDS011;10134;50.952;6.930;2022-07-24T07:28:50;6.28;;;4.35;;
19944;SDS011;10134;50.952;6.930;2022-07-24T07:31:17;6.18;;;4.60;;
19944;SDS011;10134;50.952;6.930;2022-07-24T07:33:45;7.75;;;4.68;;
19944;SDS011;10134;50.952;6.930;2022-07-24T07:36:12;6.53;;;4.93;;
19944;SDS011;10134;50.952;6.930;2022-07-24T07:38:39;6.50;;;4.57;;
19944;SDS011;10134;50.952;6.930;2022-07-24T07:41:07;6.40;;;4.57;;
19944;SDS011;10134;50.952;6.930;2022-07-24T07:43:37;8.07;;;4.47;;
19944;SDS011;10134;50.952;6.930;2022-07-24T07:46:05;5.38;;;4.43;;
19944;SDS011;10134;50.952;6.930;2022-07-24T07:48:32;6.28;;;4.90;;
19944;SDS011;10134;50.952;6.930;2022-07-24T07:51:00;7.28;;;4.65;;
19944;SDS011;10134;50.952;6.930;2022-07-24T07:53:27;7.60;;;5.43;;
19944;SDS011;10134;50.952;6.930;2022-07-24T07:55:54;6.68;;;4.95;;
19944;SDS011;10134;50.952;6.930;2022-07-24T07:58:21;7.43;;;4.38;;
19944;SDS011;10134;50.952;6.930;2022-07-24T08:00:49;5.03;;;4.07;;
19944;SDS011;10134;50.952;6.930;2022-07-24T08:03:16;5.38;;;4.35;;
19944;SDS011;10134;50.952;6.930;2022-07-24T08:05:48;7.03;;;4.63;;
19944;SDS011;10134;50.952;6.930;2022-07-24T08:08:24;6.25;;;4.95;;
19944;SDS011;10134;50.952;6.930;2022-07-24T08:10:52;4.80;;;4.25;;
19944;SDS011;10134;50.952;6.930;2022-07-24T08:13:20;6.25;;;4.93;;
19944;SDS011;10134;50.952;6.930;2022-07-24T08:15:47;5.00;;;4.32;;
19944;SDS011;10134;50.952;6.930;2022-07-24T08:18:14;4.95;;;4.38;;
19944;SDS011;10134;50.952;6.930;2022-07-24T08:20:42;8.65;;;4.72;;
19944;SDS011;10134;50.952;6.930;2022-07-24T08:23:14;6.60;;;4.60;;
19944;SDS011;10134;50.952;6.930;2022-07-24T08:25:42;5.28;;;4.75;;
19944;SDS011;10134;50.952;6.930;2022-07-24T08:28:09;6.22;;;4.43;;
19944;SDS011;10134;50.952;6.930;2022-07-24T08:30:36;6.47;;;5.15;;
19944;SDS011;10134;50.952;6.930;2022-07-24T08:33:04;5.57;;;4.57;;
19944;SDS011;10134;50.952;6.930;2022-07-24T08:35:31;5.78;;;4.90;;
19944;SDS011;10134;50.952;6.930;2022-07-24T08:37:59;5.30;;;4.80;;
19944;SDS011;10134;50.952;6.930;2022-07-24T08:40:34;7.20;;;4.55;;
19944;SDS011;10134;50.952;6.930;2022-07-24T08:43:04;5.68;;;4.60;;
19944;SDS011;10134;50.952;6.930;2022-07-24T08:45:42;4.95;;;4.45;;
19944;SDS011;10134;50.952;6.930;2022-07-24T08:48:12;9.00;;;5.00;;
19944;SDS011;10134;50.952;6.930;2022-07-24T08:50:40;7.95;;;5.03;;
19944;SDS011;10134;50.952;6.930;2022-07-24T08:53:08;7.35;;;5.25;;
19944;SDS011;10134;50.952;6.930;2022-07-24T08:55:37;5.72;;;4.85;;
19944;SDS011;10134;50.952;6.930;2022-07-24T08:58:05;5.25;;;4.57;;
19944;SDS011;10134;50.952;6.930;2022-07-24T09:00:32;4.85;;;4.28;;
19944;SDS011;10134;50.952;6.930;2022-07-24T09:03:00;5.90;;;4.97;;
19944;SDS011;10134;50.952;6.930;2022-07-24T09:05:27;5.15;;;4.32;;
19944;SDS011;10134;50.952;6.930;2022-07-24T09:08:12;5.85;;;4.60;;
19944;SDS011;10134;50.952;6.930;2022-07-24T09:10:53;7.53;;;5.22;;
19944;SDS011;10134;50.952;6.930;2022-07-24T09:13:24;7.10;;;5.07;;
19944;SDS011;10134;50.952;6.930;2022-07-24T09:15:53;6.45;;;5.22;;
19944;SDS011;10134;50.952;6.930;2022-07-24T09:18:25;4.30;;;3.90;;
19944;SDS011;10134;50.952;6.930;2022-07-24T09:20:54;6.35;;;4.88;;
19944;SDS011;10134;50.952;6.930;2022-07-24T09:23:22;6.13;;;5.28;;
19944;SDS011;10134;50.952;6.930;2022-07-24T09:25:50;5.82;;;4.93;;
19944;SDS011;10134;50.952;6.930;2022-07-24T09:28:20;5.78;;;5.15;;
19944;SDS011;10134;50.952;6.930;2022-07-24T09:30:48;8.23;;;5.00;;
19944;SDS011;10134;50.952;6.930;2022-07-24T09:33:17;7.68;;;4.65;;
19944;SDS011;10134;50.952;6.930;2022-07-24T09:35:49;7.28;;;5.28;;
19944;SDS011;10134;50.952;6.930;2022-07-24T09:38:24;9.13;;;5.10;;
19944;SDS011;10134;50.952;6.930;2022-07-24T09:40:53;8.77;;;4.93;;
19944;SDS011;10134;50.952;6.930;2022-07-24T09:43:25;8.00;;;4.82;;
19944;SDS011;10134;50.952;6.930;2022-07-24T09:46:03;6.15;;;4.85;;
19944;SDS011;10134;50.952;6.930;2022-07-24T09:51:12;6.07;;;4.97;;
19944;SDS011;10134;50.952;6.930;2022-07-24T09:53:41;10.00;;;4.90;;
19944;SDS011;10134;50.952;6.930;2022-07-24T09:56:12;5.47;;;4.85;;
19944;SDS011;10134;50.952;6.930;2022-07-24T09:58:51;6.68;;;5.25;;
19944;SDS011;10134;50.952;6.930;2022-07-24T10:01:21;6.15;;;5.15;;
19944;SDS011;10134;50.952;6.930;2022-07-24T10:03:51;6.53;;;5.43;;
19944;SDS011;10134;50.952;6.930;2022-07-24T10:06:20;5.35;;;4.40;;
19944;SDS011;10134;50.952;6.930;2022-07-24T10:08:55;5.90;;;4.10;;
19944;SDS011;10134;50.952;6.930;2022-07-24T10:11:22;5.07;;;4.55;;
19944;SDS011;10134;50.952;6.930;2022-07-24T10:13:50;5.60;;;4.50;;
19944;SDS011;10134;50.952;6.930;2022-07-24T10:18:54;8.13;;;4.95;;
19944;SDS011;10134;50.952;6.930;2022-07-24T10:21:30;6.18;;;4.88;;
19944;SDS011;10134;50.952;6.930;2022-07-24T10:26:40;6.18;;;5.47;;
19944;SDS011;10134;50.952;6.930;2022-07-24T10:29:13;6.47;;;4.70;;
19944;SDS011;10134;50.952;6.930;2022-07-24T10:31:49;6.53;;;4.70;;
19944;SDS011;10134;50.952;6.930;2022-07-24T10:45:32;6.53;;;4.50;;
19944;SDS011;10134;50.952;6.930;2022-07-24T10:53:48;7.00;;;4.70;;
19944;SDS011;10134;50.952;6.930;2022-07-24T10:56:28;8.55;;;4.47;;
19944;SDS011;10134;50.952;6.930;2022-07-24T10:59:12;8.18;;;4.50;;
19944;SDS011;10134;50.952;6.930;2022-07-24T11:01:47;6.35;;;4.90;;
19944;SDS011;10134;50.952;6.930;2022-07-24T11:06:47;6.10;;;4.53;;
19944;SDS011;10134;50.952;6.930;2022-07-24T11:09:17;5.45;;;4.60;;
19944;SDS011;10134;50.952;6.930;2022-07-24T11:14:47;6.55;;;4.70;;
19944;SDS011;10134;50.952;6.930;2022-07-24T11:20:06;4.78;;;4.38;;
19944;SDS011;10134;50.952;6.930;2022-07-24T11:25:21;5.05;;;4.30;;
19944;SDS011;10134;50.952;6.930;2022-07-24T11:27:57;5.75;;;4.93;;
19944;SDS011;10134;50.952;6.930;2022-07-24T11:30:44;6.50;;;4.05;;
19944;SDS011;10134;50.952;6.930;2022-07-24T11:33:17;6.97;;;4.18;;
19944;SDS011;10134;50.952;6.930;2022-07-24T11:35:47;5.00;;;4.35;;
19944;SDS011;10134;50.952;6.930;2022-07-24T11:38:15;5.05;;;4.50;;
19944;SDS011;10134;50.952;6.930;2022-07-24T11:40:43;4.95;;;4.45;;
19944;SDS011;10134;50.952;6.930;2022-07-24T11:43:10;6.60;;;5.13;;
19944;SDS011;10134;50.952;6.930;2022-07-24T11:45:38;7.05;;;4.75;;
19944;SDS011;10134;50.952;6.930;2022-07-24T11:48:06;7.75;;;4.53;;
19944;SDS011;10134;50.952;6.930;2022-07-24T11:50:44;6.03;;;4.53;;
19944;SDS011;10134;50.952;6.930;2022-07-24T11:53:12;16.08;;;5.10;;
19944;SDS011;10134;50.952;6.930;2022-07-24T11:55:39;5.00;;;4.30;;
19944;SDS011;10134;50.952;6.930;2022-07-24T11:58:06;5.75;;;4.90;;
19944;SDS011;10134;50.952;6.930;2022-07-24T12:00:53;5.10;;;4.60;;
19944;SDS011;10134;50.952;6.930;2022-07-24T12:03:23;4.53;;;3.90;;
19944;SDS011;10134;50.952;6.930;2022-07-24T12:05:50;4.75;;;4.07;;
19944;SDS011;10134;50.952;6.930;2022-07-24T12:08:19;4.45;;;3.80;;
19944;SDS011;10134;50.952;6.930;2022-07-24T12:10:55;4.78;;;4.25;;
19944;SDS011;10134;50.952;6.930;2022-07-24T12:13:23;6.13;;;4.15;;
19944;SDS011;10134;50.952;6.930;2022-07-24T12:15:50;6.07;;;4.68;;
19944;SDS011;10134;50.952;6.930;2022-07-24T12:18:18;7.25;;;4.20;;
19944;SDS011;10134;50.952;6.930;2022-07-24T12:20:57;7.57;;;4.68;;
19944;SDS011;10134;50.952;6.930;2022-07-24T12:23:26;6.95;;;4.43;;
19944;SDS011;10134;50.952;6.930;2022-07-24T12:25:55;4.30;;;3.90;;
19944;SDS011;10134;50.952;6.930;2022-07-24T12:28:23;5.45;;;4.18;;
19944;SDS011;10134;50.952;6.930;2022-07-24T12:30:51;5.38;;;4.10;;
19944;SDS011;10134;50.952;6.930;2022-07-24T12:33:21;7.88;;;4.55;;
19944;SDS011;10134;50.952;6.930;2022-07-24T12:35:57;7.30;;;4.18;;
19944;SDS011;10134;50.952;6.930;2022-07-24T12:41:16;6.00;;;4.30;;
19944;SDS011;10134;50.952;6.930;2022-07-24T12:46:38;6.55;;;4.25;;
19944;SDS011;10134;50.952;6.930;2022-07-24T12:51:52;5.75;;;4.65;;
19944;SDS011;10134;50.952;6.930;2022-07-24T12:54:25;5.47;;;4.18;;
19944;SDS011;10134;50.952;6.930;2022-07-24T12:56:58;4.40;;;3.92;;
19944;SDS011;10134;50.952;6.930;2022-07-24T12:59:31;5.28;;;4.47;;
19944;SDS011;10134;50.952;6.930;2022-07-24T13:02:07;5.65;;;3.85;;
19944;SDS011;10134;50.952;6.930;2022-07-24T13:04:44;5.22;;;4.55;;
19944;SDS011;10134;50.952;6.930;2022-07-24T13:07:14;4.65;;;3.67;;
19944;SDS011;10134;50.952;6.930;2022-07-24T13:09:43;6.90;;;4.50;;
19944;SDS011;10134;50.952;6.930;2022-07-24T13:12:11;5.03;;;3.47;;
19944;SDS011;10134;50.952;6.930;2022-07-24T13:14:39;5.05;;;4.07;;
19944;SDS011;10134;50.952;6.930;2022-07-24T13:17:11;4.38;;;3.97;;
19944;SDS011;10134;50.952;6.930;2022-07-24T13:19:41;6.88;;;4.30;;
19944;SDS011;10134;50.952;6.930;2022-07-24T13:22:09;6.18;;;3.90;;
19944;SDS011;10134;50.952;6.930;2022-07-24T13:24:37;5.03;;;4.13;;
19944;SDS011;10134;50.952;6.930;2022-07-24T13:27:05;4.28;;;3.88;;
19944;SDS011;10134;50.952;6.930;2022-07-24T13:29:34;4.28;;;3.88;;
19944;SDS011;10134;50.952;6.930;2022-07-24T13:32:02;5.88;;;3.72;;
19944;SDS011;10134;50.952;6.930;2022-07-24T13:34:31;4.10;;;3.70;;
19944;SDS011;10134;50.952;6.930;2022-07-24T13:37:00;4.72;;;4.22;;
19944;SDS011;10134;50.952;6.930;2022-07-24T13:39:28;5.07;;;3.90;;
19944;SDS011;10134;50.952;6.930;2022-07-24T13:41:55;3.63;;;3.28;;
19944;SDS011;10134;50.952;6.930;2022-07-24T13:44:22;7.05;;;3.75;;
19944;SDS011;10134;50.952;6.930;2022-07-24T13:46:49;5.38;;;3.40;;
19944;SDS011;10134;50.952;6.930;2022-07-24T13:49:17;5.88;;;3.70;;
19944;SDS011;10134;50.952;6.930;2022-07-24T13:51:44;7.10;;;3.50;;
19944;SDS011;10134;50.952;6.930;2022-07-24T13:54:14;4.85;;;3.70;;
19944;SDS011;10134;50.952;6.930;2022-07-24T13:56:41;3.85;;;3.40;;
19944;SDS011;10134;50.952;6.930;2022-07-24T13:59:09;4.22;;;3.78;;
19944;SDS011;10134;50.952;6.930;2022-07-24T14:01:36;3.67;;;3.17;;
19944;SDS011;10134;50.952;6.930;2022-07-24T14:04:04;3.60;;;3.30;;
19944;SDS011;10134;50.952;6.930;2022-07-24T14:06:55;3.35;;;3.05;;
19944;SDS011;10134;50.952;6.930;2022-07-24T14:09:23;4.05;;;3.38;;
19944;SDS011;10134;50.952;6.930;2022-07-24T14:11:51;5.13;;;3.75;;
19944;SDS011;10134;50.952;6.930;2022-07-24T14:14:19;5.13;;;3.60;;
19944;SDS011;10134;50.952;6.930;2022-07-24T14:16:47;4.63;;;3.75;;
19944;SDS011;10134;50.952;6.930;2022-07-24T14:19:15;3.85;;;3.50;;
19944;SDS011;10134;50.952;6.930;2022-07-24T14:21:42;4.00;;;3.22;;
19944;SDS011;10134;50.952;6.930;2022-07-24T14:24:17;5.13;;;3.90;;
19944;SDS011;10134;50.952;6.930;2022-07-24T14:26:47;3.83;;;3.50;;
19944;SDS011;10134;50.952;6.930;2022-07-24T14:29:15;6.03;;;3.83;;
19944;SDS011;10134;50.952;6.930;2022-07-24T14:31:42;4.47;;;3.47;;
19944;SDS011;10134;50.952;6.930;2022-07-24T14:34:10;3.95;;;3.55;;
19944;SDS011;10134;50.952;6.930;2022-07-24T14:36:37;7.43;;;3.83;;
19944;SDS011;10134;50.952;6.930;2022-07-24T14:39:05;6.10;;;3.95;;
19944;SDS011;10134;50.952;6.930;2022-07-24T14:41:33;3.58;;;3.25;;
19944;SDS011;10134;50.952;6.930;2022-07-24T14:44:01;4.13;;;3.30;;
19944;SDS011;10134;50.952;6.930;2022-07-24T14:46:36;4.25;;;3.58;;
19944;SDS011;10134;50.952;6.930;2022-07-24T14:49:04;4.13;;;3.42;;
19944;SDS011;10134;50.952;6.930;2022-07-24T14:51:33;4.38;;;3.75;;
19944;SDS011;10134;50.952;6.930;2022-07-24T14:54:00;3.33;;;3.03;;
19944;SDS011;10134;50.952;6.930;2022-07-24T14:56:28;4.25;;;3.22;;
19944;SDS011;10134;50.952;6.930;2022-07-24T14:58:55;5.50;;;3.30;;
19944;SDS011;10134;50.952;6.930;2022-07-24T15:01:22;5.05;;;3.13;;
19944;SDS011;10134;50.952;6.930;2022-07-24T15:03:50;4.80;;;3.65;;
19944;SDS011;10134;50.952;6.930;2022-07-24T15:06:17;3.92;;;3.55;;
19944;SDS011;10134;50.952;6.930;2022-07-24T15:08:45;3.72;;;2.95;;
19944;SDS011;10134;50.952;6.930;2022-07-24T15:11:13;4.82;;;3.47;;
19944;SDS011;10134;50.952;6.930;2022-07-24T15:13:41;3.38;;;3.08;;
19944;SDS011;10134;50.952;6.930;2022-07-24T15:16:08;3.80;;;3.33;;
19944;SDS011;10134;50.952;6.930;2022-07-24T15:18:35;4.80;;;3.33;;
19944;SDS011;10134;50.952;6.930;2022-07-24T15:21:04;3.65;;;3.20;;
19944;SDS011;10134;50.952;6.930;2022-07-24T15:23:31;6.65;;;3.58;;
19944;SDS011;10134;50.952;6.930;2022-07-24T15:25:59;5.25;;;3.72;;
19944;SDS011;10134;50.952;6.930;2022-07-24T15:28:26;3.75;;;3.15;;
19944;SDS011;10134;50.952;6.930;2022-07-24T15:30:54;3.30;;;2.90;;
19944;SDS011;10134;50.952;6.930;2022-07-24T15:33:23;3.38;;;3.08;;
19944;SDS011;10134;50.952;6.930;2022-07-24T15:35:51;3.40;;;3.05;;
19944;SDS011;10134;50.952;6.930;2022-07-24T15:38:19;5.55;;;3.85;;
19944;SDS011;10134;50.952;6.930;2022-07-24T15:40:46;4.13;;;3.28;;
19944;SDS011;10134;50.952;6.930;2022-07-24T15:43:15;5.05;;;3.22;;
19944;SDS011;10134;50.952;6.930;2022-07-24T15:45:44;5.15;;;3.30;;